createdAt,value
2018-05-05T00:01:57.687Z,4.40
2018-05-05T00:04:25.186Z,4.33
2018-05-05T00:06:52.673Z,4.50
2018-05-05T00:09:20.964Z,4.47
2018-05-05T00:11:48.493Z,4.10
2018-05-05T00:14:16.792Z,4.17
2018-05-05T00:16:45.050Z,4.17
2018-05-05T00:19:13.342Z,4.30
2018-05-05T00:21:41.605Z,4.67
2018-05-05T00:24:09.883Z,5.23
2018-05-05T00:26:38.161Z,4.30
2018-05-05T00:29:06.430Z,4.90
2018-05-05T00:31:33.938Z,4.40
2018-05-05T00:34:01.436Z,4.87
2018-05-05T00:36:28.969Z,5.37
2018-05-05T00:38:56.466Z,5.10
2018-05-05T00:41:23.995Z,4.17
2018-05-05T00:43:51.498Z,4.03
2018-05-05T00:46:19.778Z,4.50
2018-05-05T00:48:48.050Z,5.13
2018-05-05T00:51:16.337Z,4.50
2018-05-05T00:53:44.611Z,4.70
2018-05-05T00:56:12.893Z,5.40
2018-05-05T00:58:41.173Z,4.87
2018-05-05T01:01:09.452Z,4.33
2018-05-05T01:03:36.950Z,4.47
2018-05-05T01:06:04.480Z,4.70
2018-05-05T01:08:31.969Z,4.80
2018-05-05T01:10:59.471Z,4.87
2018-05-05T01:13:27.759Z,4.30
2018-05-05T01:15:56.034Z,4.93
2018-05-05T01:18:24.319Z,5.10
2018-05-05T01:20:52.585Z,5.00
2018-05-05T01:23:20.893Z,4.50
2018-05-05T01:25:48.397Z,4.67
2018-05-05T01:28:15.906Z,4.90
2018-05-05T01:30:43.441Z,5.30
2018-05-05T01:33:11.714Z,4.07
2018-05-05T01:35:40.002Z,5.20
2018-05-05T01:38:08.279Z,4.68
2018-05-05T01:40:36.574Z,4.72
2018-05-05T01:43:04.087Z,4.75
2018-05-05T01:45:31.604Z,4.43
2018-05-05T01:47:59.151Z,5.33
2018-05-05T01:50:26.614Z,4.43
2018-05-05T01:52:54.130Z,5.23
2018-05-05T01:55:21.644Z,4.60
2018-05-05T01:57:49.172Z,4.40
2018-05-05T02:00:17.444Z,5.10
2018-05-05T02:02:45.735Z,4.53
2018-05-05T02:05:13.247Z,4.70
2018-05-05T02:07:40.787Z,4.60
2018-05-05T02:10:08.277Z,4.73
2018-05-05T02:12:35.787Z,4.60
2018-05-05T02:15:03.316Z,4.53
2018-05-05T02:17:30.815Z,4.47
2018-05-05T02:19:58.330Z,4.70
2018-05-05T02:22:25.830Z,5.13
2018-05-05T02:24:53.351Z,4.30
2018-05-05T02:27:21.177Z,4.27
2018-05-05T02:29:48.685Z,4.13
2018-05-05T02:32:16.174Z,4.70
2018-05-05T02:34:43.695Z,5.00
2018-05-05T02:37:11.297Z,4.50
2018-05-05T02:39:38.725Z,4.37
2018-05-05T02:42:06.989Z,4.90
2018-05-05T02:44:34.498Z,4.85
2018-05-05T02:47:02.006Z,4.97
2018-05-05T02:49:29.547Z,4.60
2018-05-05T02:51:57.058Z,4.90
2018-05-05T02:54:24.578Z,4.80
2018-05-05T02:56:52.078Z,4.65
2018-05-05T02:59:19.606Z,4.97
2018-05-05T03:01:47.121Z,5.20
2018-05-05T03:04:14.617Z,5.22
2018-05-05T03:06:42.148Z,4.40
2018-05-05T03:09:09.646Z,5.40
2018-05-05T03:11:37.292Z,4.70
2018-05-05T03:14:04.680Z,5.25
2018-05-05T03:16:32.186Z,5.60
2018-05-05T03:18:59.701Z,5.40
2018-05-05T03:21:27.969Z,5.40
2018-05-05T03:23:55.480Z,5.00
2018-05-05T03:26:22.988Z,4.73
2018-05-05T03:28:51.269Z,5.60
2018-05-05T03:31:19.753Z,5.70
2018-05-05T03:33:48.030Z,4.75
2018-05-05T03:36:16.297Z,5.55
2018-05-05T03:38:44.597Z,5.20
2018-05-05T03:41:12.317Z,4.80
2018-05-05T03:43:39.857Z,4.80
2018-05-05T03:46:07.370Z,4.93
2018-05-05T03:48:35.634Z,4.83
2018-05-05T03:51:03.151Z,5.17
2018-05-05T03:53:30.657Z,4.70
2018-05-05T03:55:58.161Z,4.83
2018-05-05T03:58:25.662Z,5.03
2018-05-05T04:01:05.317Z,5.07
2018-05-05T04:03:45.355Z,4.55
2018-05-05T04:06:12.870Z,5.50
2018-05-05T04:08:40.373Z,5.53
2018-05-05T04:11:07.879Z,5.60
2018-05-05T04:13:35.401Z,6.07
2018-05-05T04:16:03.118Z,5.47
2018-05-05T04:18:31.394Z,5.10
2018-05-05T04:20:58.878Z,5.45
2018-05-05T04:23:26.389Z,5.03
2018-05-05T04:25:53.889Z,5.65
2018-05-05T04:28:23.035Z,5.15
2018-05-05T04:30:50.546Z,5.23
2018-05-05T04:33:18.047Z,4.57
2018-05-05T04:35:46.325Z,4.93
2018-05-05T04:38:14.592Z,4.55
2018-05-05T04:40:42.092Z,5.37
2018-05-05T04:43:09.593Z,4.83
2018-05-05T04:45:37.098Z,5.10
2018-05-05T04:48:04.613Z,4.60
2018-05-05T04:50:32.125Z,4.60
2018-05-05T04:52:59.646Z,4.67
2018-05-05T04:55:27.141Z,5.00
2018-05-05T04:57:54.654Z,4.60
2018-05-05T05:00:22.141Z,4.90
2018-05-05T05:02:50.437Z,4.53
2018-05-05T05:05:17.929Z,4.90
2018-05-05T05:07:45.449Z,5.27
2018-05-05T05:10:13.708Z,4.50
2018-05-05T05:12:41.197Z,4.67
2018-05-05T05:15:08.708Z,4.80
2018-05-05T05:17:36.197Z,4.87
2018-05-05T05:20:04.518Z,5.10
2018-05-05T05:22:32.033Z,5.50
2018-05-05T05:25:00.306Z,4.60
2018-05-05T05:27:28.581Z,5.37
2018-05-05T05:29:56.133Z,5.20
2018-05-05T05:32:23.628Z,4.70
2018-05-05T05:34:51.117Z,4.73
2018-05-05T05:37:18.645Z,5.10
2018-05-05T05:39:46.144Z,4.60
2018-05-05T05:42:13.890Z,5.17
2018-05-05T05:44:41.410Z,5.03
2018-05-05T05:47:09.681Z,5.07
2018-05-05T05:49:37.941Z,5.70
2018-05-05T05:52:05.447Z,4.87
2018-05-05T05:54:32.942Z,5.37
2018-05-05T05:57:00.429Z,5.10
2018-05-05T05:59:27.939Z,5.17
2018-05-05T06:01:55.436Z,6.13
2018-05-05T06:04:22.941Z,4.90
2018-05-05T06:06:50.450Z,5.23
2018-05-05T06:09:17.979Z,5.63
2018-05-05T06:11:45.490Z,4.93
2018-05-05T06:14:12.995Z,5.07
2018-05-05T06:16:40.513Z,4.90
2018-05-05T06:19:08.779Z,5.37
2018-05-05T06:21:36.299Z,4.80
2018-05-05T06:24:03.790Z,5.17
2018-05-05T06:26:31.436Z,5.67
2018-05-05T06:28:58.958Z,4.70
2018-05-05T06:31:26.476Z,4.73
2018-05-05T06:33:53.964Z,5.30
2018-05-05T06:36:22.217Z,5.40
2018-05-05T06:38:50.508Z,5.00
2018-05-05T06:41:18.033Z,5.10
2018-05-05T06:43:45.557Z,5.13
2018-05-05T06:46:13.062Z,4.50
2018-05-05T06:48:40.576Z,4.70
2018-05-05T06:51:08.077Z,5.10
2018-05-05T06:53:35.597Z,4.70
2018-05-05T06:56:03.093Z,5.00
2018-05-05T06:58:30.601Z,5.37
2018-05-05T07:00:58.147Z,5.37
2018-05-05T07:03:26.413Z,5.20
2018-05-05T07:05:54.693Z,4.80
2018-05-05T07:08:22.970Z,5.93
2018-05-05T07:10:51.259Z,5.27
2018-05-05T07:13:19.524Z,4.90
2018-05-05T07:15:47.795Z,5.60
2018-05-05T07:18:15.325Z,5.20
2018-05-05T07:20:42.826Z,6.37
2018-05-05T07:23:10.337Z,6.03
2018-05-05T07:25:37.843Z,5.93
2018-05-05T07:28:06.161Z,5.53
2018-05-05T07:30:34.310Z,6.10
2018-05-05T07:33:01.930Z,6.13
2018-05-05T07:35:29.452Z,5.60
2018-05-05T07:37:56.978Z,5.73
2018-05-05T07:40:25.299Z,6.40
2018-05-05T07:42:52.797Z,5.67
2018-05-05T07:45:20.329Z,5.83
2018-05-05T07:47:47.905Z,5.77
2018-05-05T07:50:15.450Z,5.30
2018-05-05T07:52:43.182Z,5.20
2018-05-05T07:55:10.691Z,5.73
2018-05-05T07:57:38.220Z,5.60
2018-05-05T08:00:05.768Z,6.30
2018-05-05T08:02:33.315Z,6.27
2018-05-05T08:05:00.825Z,6.57
2018-05-05T08:07:29.157Z,6.97
2018-05-05T08:09:56.671Z,5.70
2018-05-05T08:12:24.202Z,6.30
2018-05-05T08:14:51.723Z,6.20
2018-05-05T08:17:19.237Z,5.80
2018-05-05T08:19:46.753Z,5.73
2018-05-05T08:22:14.266Z,6.20
2018-05-05T08:24:41.793Z,6.73
2018-05-05T08:27:09.301Z,7.13
2018-05-05T08:29:36.831Z,6.17
2018-05-05T08:32:04.340Z,7.37
2018-05-05T08:34:32.630Z,6.90
2018-05-05T08:37:00.162Z,6.70
2018-05-05T08:39:27.684Z,6.90
2018-05-05T08:41:55.993Z,6.63
2018-05-05T08:44:23.498Z,6.90
2018-05-05T08:46:51.022Z,6.20
2018-05-05T08:49:22.669Z,7.63
2018-05-05T08:51:50.192Z,7.27
2018-05-05T08:54:17.712Z,7.53
2018-05-05T08:56:46.011Z,6.27
2018-05-05T08:59:13.508Z,7.53
2018-05-05T09:01:41.006Z,6.53
2018-05-05T09:04:08.743Z,6.93
2018-05-05T09:06:36.248Z,7.80
2018-05-05T09:09:03.776Z,7.90
2018-05-05T09:11:31.322Z,7.77
2018-05-05T09:13:58.860Z,9.50
2018-05-05T09:16:26.358Z,8.73
2018-05-05T09:18:54.650Z,7.60
2018-05-05T09:21:22.912Z,8.60
2018-05-05T09:23:50.429Z,8.97
2018-05-05T09:26:17.949Z,8.00
2018-05-05T09:28:45.672Z,8.70
2018-05-05T09:31:13.200Z,8.60
2018-05-05T09:33:40.715Z,8.83
2018-05-05T09:36:08.245Z,9.07
2018-05-05T09:38:35.754Z,7.83
2018-05-05T09:41:03.282Z,9.23
2018-05-05T09:43:30.777Z,8.60
2018-05-05T09:45:58.335Z,8.60
2018-05-05T09:48:26.613Z,9.33
2018-05-05T09:50:54.174Z,10.30
2018-05-05T09:53:21.707Z,9.50
2018-05-05T09:55:49.225Z,8.90
2018-05-05T09:58:16.775Z,8.73
2018-05-05T10:00:44.330Z,9.53
2018-05-05T10:03:11.815Z,9.07
2018-05-05T10:05:39.324Z,8.37
2018-05-05T10:08:07.596Z,8.27
2018-05-05T10:10:35.884Z,9.20
2018-05-05T10:13:03.381Z,8.97
2018-05-05T10:15:30.903Z,9.07
2018-05-05T10:17:59.176Z,10.57
2018-05-05T10:20:27.461Z,9.40
2018-05-05T10:22:55.945Z,8.93
2018-05-05T10:25:23.443Z,8.90
2018-05-05T10:27:50.958Z,8.57
2018-05-05T10:30:19.226Z,9.10
2018-05-05T10:32:47.530Z,9.33
2018-05-05T10:35:15.051Z,9.40
2018-05-05T10:37:43.354Z,9.53
2018-05-05T10:40:11.634Z,8.77
2018-05-05T10:42:39.134Z,8.53
2018-05-05T10:45:06.660Z,8.17
2018-05-05T10:47:34.199Z,8.67
2018-05-05T10:50:02.497Z,8.77
2018-05-05T10:52:30.011Z,9.13
2018-05-05T10:54:57.580Z,9.33
2018-05-05T10:57:25.857Z,9.00
2018-05-05T10:59:53.390Z,8.57
2018-05-05T11:02:20.891Z,8.40
2018-05-05T11:04:49.177Z,9.23
2018-05-05T11:10:03.367Z,9.97
2018-05-05T11:12:31.056Z,9.20
2018-05-05T11:14:58.622Z,8.93
2018-05-05T11:17:26.142Z,8.10
2018-05-05T11:19:53.634Z,8.47
2018-05-05T11:22:21.177Z,8.43
2018-05-05T11:24:48.739Z,7.70
2018-05-05T11:27:16.250Z,8.50
2018-05-05T11:29:43.786Z,9.50
2018-05-05T11:32:11.288Z,8.83
2018-05-05T11:34:38.831Z,8.47
2018-05-05T11:37:06.342Z,7.50
2018-05-05T11:39:33.882Z,9.63
2018-05-05T11:42:01.386Z,8.10
2018-05-05T11:44:28.910Z,9.67
2018-05-05T11:46:56.425Z,8.53
2018-05-05T11:49:24.086Z,8.27
2018-05-05T11:51:51.662Z,8.30
2018-05-05T11:54:19.929Z,8.73
2018-05-05T11:56:47.458Z,8.00
2018-05-05T11:59:14.959Z,8.50
2018-05-05T12:01:43.330Z,8.40
2018-05-05T12:04:10.759Z,8.53
2018-05-05T12:06:38.269Z,7.90
2018-05-05T12:09:06.552Z,8.13
2018-05-05T12:11:34.076Z,8.80
2018-05-05T12:14:01.697Z,7.50
2018-05-05T12:16:29.193Z,8.83
2018-05-05T12:18:56.719Z,9.13
2018-05-05T12:21:24.213Z,8.50
2018-05-05T12:23:51.706Z,9.30
2018-05-05T12:26:19.983Z,8.63
2018-05-05T12:28:48.239Z,7.47
2018-05-05T12:31:16.516Z,8.87
2018-05-05T12:33:44.007Z,8.90
2018-05-05T12:36:11.618Z,7.97
2018-05-05T12:38:39.135Z,8.20
2018-05-05T12:41:06.652Z,8.40
2018-05-05T12:43:34.152Z,8.23
2018-05-05T12:46:01.654Z,8.63
2018-05-05T12:48:29.175Z,9.03
2018-05-05T12:50:56.661Z,8.13
2018-05-05T12:53:24.171Z,8.50
2018-05-05T12:55:52.434Z,7.53
2018-05-05T12:58:20.738Z,7.77
2018-05-05T13:00:48.245Z,8.10
2018-05-05T13:03:15.764Z,7.20
2018-05-05T13:05:43.255Z,7.67
2018-05-05T13:08:10.766Z,7.60
2018-05-05T13:10:39.044Z,8.30
2018-05-05T13:13:07.300Z,8.80
2018-05-05T13:15:34.835Z,8.00
2018-05-05T13:18:02.325Z,8.23
2018-05-05T13:20:30.614Z,8.20
2018-05-05T13:22:58.865Z,7.83
2018-05-05T13:25:26.383Z,7.73
2018-05-05T13:27:53.881Z,7.87
2018-05-05T13:30:21.366Z,7.13
2018-05-05T13:32:48.896Z,8.50
2018-05-05T13:35:16.398Z,6.90
2018-05-05T13:37:43.919Z,7.10
2018-05-05T13:40:11.422Z,7.87
2018-05-05T13:42:38.935Z,7.07
2018-05-05T13:45:06.431Z,7.40
2018-05-05T13:47:33.956Z,8.30
2018-05-05T13:50:01.458Z,7.53
2018-05-05T13:52:28.990Z,7.30
2018-05-05T13:54:57.244Z,6.97
2018-05-05T13:57:24.755Z,8.20
2018-05-05T13:59:52.287Z,7.47
2018-05-05T14:02:20.541Z,7.43
2018-05-05T14:04:48.297Z,7.00
2018-05-05T14:07:15.801Z,6.93
2018-05-05T14:09:44.082Z,6.90
2018-05-05T14:12:11.656Z,7.30
2018-05-05T14:14:39.173Z,7.70
2018-05-05T14:17:06.670Z,6.90
2018-05-05T14:19:34.198Z,6.80
2018-05-05T14:22:01.696Z,6.67
2018-05-05T14:24:29.192Z,6.70
2018-05-05T14:26:56.700Z,6.50
2018-05-05T14:29:24.254Z,7.73
2018-05-05T14:31:51.738Z,6.30
2018-05-05T14:34:19.986Z,6.90
2018-05-05T14:36:48.273Z,6.63
2018-05-05T14:39:15.782Z,6.83
2018-05-05T14:41:43.315Z,7.50
2018-05-05T14:44:10.806Z,7.03
2018-05-05T14:46:38.331Z,7.30
2018-05-05T14:49:05.819Z,6.23
2018-05-05T14:51:33.314Z,6.70
2018-05-05T14:54:01.601Z,6.80
2018-05-05T14:56:29.098Z,6.77
2018-05-05T14:58:56.639Z,7.17
2018-05-05T15:01:24.120Z,5.97
2018-05-05T15:03:51.637Z,7.10
2018-05-05T15:06:19.903Z,6.50
2018-05-05T15:08:48.773Z,6.63
2018-05-05T15:11:16.437Z,7.03
2018-05-05T15:13:44.791Z,6.20
2018-05-05T15:16:12.299Z,7.30
2018-05-05T15:18:40.559Z,5.97
2018-05-05T15:21:08.074Z,7.40
2018-05-05T15:23:35.586Z,6.60
2018-05-05T15:26:03.096Z,7.00
2018-05-05T15:28:30.585Z,6.00
2018-05-05T15:30:58.117Z,6.67
2018-05-05T15:33:25.670Z,6.57
2018-05-05T15:35:53.155Z,6.50
2018-05-05T15:38:20.667Z,6.57
2018-05-05T15:40:48.188Z,6.03
2018-05-05T15:43:15.691Z,6.00
2018-05-05T15:45:43.205Z,5.43
2018-05-05T15:48:10.702Z,5.90
2018-05-05T15:50:38.958Z,6.40
2018-05-05T15:53:07.239Z,6.33
2018-05-05T15:55:35.504Z,5.90
2018-05-05T15:58:03.014Z,5.90
2018-05-05T16:00:30.517Z,5.60
2018-05-05T16:02:58.029Z,6.00
2018-05-05T16:05:25.520Z,5.67
2018-05-05T16:07:53.043Z,6.47
2018-05-05T16:10:20.529Z,5.57
2018-05-05T16:12:48.244Z,6.23
2018-05-05T16:15:16.523Z,5.50
2018-05-05T16:17:44.793Z,6.10
2018-05-05T16:20:13.082Z,5.47
2018-05-05T16:22:40.624Z,5.47
2018-05-05T16:25:08.135Z,7.47
2018-05-05T16:27:35.646Z,6.00
2018-05-05T16:30:03.938Z,5.80
2018-05-05T16:32:32.194Z,6.07
2018-05-05T16:34:59.700Z,5.70
2018-05-05T16:37:27.203Z,6.00
2018-05-05T16:39:54.728Z,7.00
2018-05-05T16:42:22.262Z,5.60
2018-05-05T16:44:50.054Z,5.27
2018-05-05T16:47:17.566Z,5.97
2018-05-05T16:49:45.837Z,5.87
2018-05-05T16:52:14.117Z,5.43
2018-05-05T16:54:41.627Z,6.00
2018-05-05T16:57:09.134Z,5.43
2018-05-05T16:59:37.389Z,5.47
2018-05-05T17:02:04.898Z,5.73
2018-05-05T17:04:32.619Z,5.57
2018-05-05T17:07:00.604Z,5.83
2018-05-05T17:09:28.903Z,6.00
2018-05-05T17:11:57.192Z,6.50
2018-05-05T17:14:24.749Z,6.70
2018-05-05T17:16:52.347Z,5.70
2018-05-05T17:19:19.803Z,5.63
2018-05-05T17:21:47.305Z,6.20
2018-05-05T17:24:15.579Z,6.03
2018-05-05T17:26:43.863Z,5.77
2018-05-05T17:29:12.150Z,6.20
2018-05-05T17:31:40.429Z,5.67
2018-05-05T17:34:08.699Z,5.80
2018-05-05T17:36:37.005Z,6.40
2018-05-05T17:39:05.264Z,6.50
2018-05-05T17:41:33.564Z,5.60
2018-05-05T17:44:01.066Z,5.67
2018-05-05T17:46:28.583Z,5.40
2018-05-05T17:48:56.074Z,6.53
2018-05-05T17:51:23.586Z,5.70
2018-05-05T17:53:51.101Z,6.27
2018-05-05T17:56:18.629Z,5.73
2018-05-05T17:58:46.151Z,6.30
2018-05-05T18:01:14.438Z,5.90
2018-05-05T18:03:41.947Z,6.90
2018-05-05T18:06:09.466Z,6.00
2018-05-05T18:08:36.978Z,6.33
2018-05-05T18:11:04.523Z,7.10
2018-05-05T18:13:32.040Z,5.63
2018-05-05T18:15:59.550Z,5.50
2018-05-05T18:18:27.064Z,5.80
2018-05-05T18:20:54.567Z,5.67
2018-05-05T18:23:22.092Z,6.60
2018-05-05T18:25:49.597Z,5.40
2018-05-05T18:28:17.117Z,5.40
2018-05-05T18:30:44.614Z,5.57
2018-05-05T18:33:12.136Z,5.47
2018-05-05T18:35:39.639Z,5.30
2018-05-05T18:38:07.229Z,6.40
2018-05-05T18:40:34.908Z,7.20
2018-05-05T18:43:02.537Z,18.67
2018-05-05T18:45:30.872Z,30.03
2018-05-05T18:47:58.427Z,29.63
2018-05-05T18:50:25.995Z,30.13
2018-05-05T18:52:53.533Z,40.33
2018-05-05T18:55:21.077Z,42.43
2018-05-05T18:57:48.643Z,46.80
2018-05-05T19:00:16.207Z,38.80
2018-05-05T19:02:43.778Z,23.30
2018-05-05T19:05:11.364Z,43.57
2018-05-05T19:07:38.898Z,48.60
2018-05-05T19:10:06.472Z,34.70
2018-05-05T19:12:34.070Z,34.13
2018-05-05T19:15:01.645Z,47.00
2018-05-05T19:17:29.293Z,22.53
2018-05-05T19:19:57.623Z,12.63
2018-05-05T19:22:25.183Z,9.40
2018-05-05T19:24:52.726Z,7.80
2018-05-05T19:27:20.316Z,7.67
2018-05-05T19:29:51.447Z,7.43
2018-05-05T19:32:19.058Z,6.03
2018-05-05T19:34:47.436Z,7.10
2018-05-05T19:37:15.798Z,6.63
2018-05-05T19:39:43.424Z,6.50
2018-05-05T19:42:11.172Z,7.10
2018-05-05T19:44:38.762Z,6.20
2018-05-05T19:47:06.444Z,6.50
2018-05-05T19:49:34.693Z,5.80
2018-05-05T19:52:02.459Z,5.80
2018-05-05T19:54:30.035Z,6.30
2018-05-05T19:56:58.432Z,7.10
2018-05-05T19:59:26.947Z,6.10
2018-05-05T20:01:55.331Z,6.07
2018-05-05T20:04:24.545Z,5.80
2018-05-05T20:06:52.147Z,6.03
2018-05-05T20:09:19.705Z,6.13
2018-05-05T20:11:47.277Z,5.33
2018-05-05T20:14:14.912Z,6.17
2018-05-05T20:16:42.592Z,5.90
2018-05-05T20:19:10.304Z,6.03
2018-05-05T20:21:37.953Z,6.50
2018-05-05T20:24:05.643Z,5.50
2018-05-05T20:26:33.266Z,5.57
2018-05-05T20:29:01.807Z,6.30
2018-05-05T20:31:29.366Z,6.37
2018-05-05T20:33:57.287Z,6.60
2018-05-05T20:36:26.482Z,5.93
2018-05-05T20:38:55.809Z,6.00
2018-05-05T20:41:23.427Z,5.83
2018-05-05T20:43:51.097Z,6.50
2018-05-05T20:46:18.646Z,5.57
2018-05-05T20:48:46.314Z,5.73
2018-05-05T20:51:13.997Z,5.60
2018-05-05T20:53:41.630Z,5.67
2018-05-05T20:56:09.183Z,5.53
2018-05-05T20:58:36.749Z,5.90
2018-05-05T21:01:04.321Z,5.20
2018-05-05T21:03:31.904Z,6.23
2018-05-05T21:06:00.202Z,6.57
2018-05-05T21:08:28.508Z,6.30
2018-05-05T21:10:56.065Z,5.13
2018-05-05T21:13:23.636Z,5.80
2018-05-05T21:15:51.983Z,5.63
2018-05-05T21:18:20.317Z,5.63
2018-05-05T21:20:47.848Z,5.63
2018-05-05T21:23:15.471Z,5.73
2018-05-05T21:25:44.013Z,5.57
2018-05-05T21:28:14.163Z,4.80
2018-05-05T21:30:41.779Z,5.60
2018-05-05T21:33:09.364Z,5.47
2018-05-05T21:35:37.012Z,5.93
2018-05-05T21:38:05.810Z,5.20
2018-05-05T21:40:33.411Z,5.80
2018-05-05T21:43:01.794Z,5.20
2018-05-05T21:45:29.346Z,5.33
2018-05-05T21:47:56.872Z,6.40
2018-05-05T21:50:25.189Z,6.00
2018-05-05T21:52:52.728Z,6.90
2018-05-05T21:55:20.278Z,5.73
2018-05-05T21:57:47.817Z,6.70
2018-05-05T22:00:15.320Z,6.40
2018-05-05T22:02:42.854Z,6.20
2018-05-05T22:05:10.365Z,6.57
2018-05-05T22:07:38.652Z,6.40
2018-05-05T22:10:06.150Z,6.73
2018-05-05T22:12:33.662Z,5.37
2018-05-05T22:15:01.964Z,6.10
2018-05-05T22:17:29.465Z,6.30
2018-05-05T22:19:57.005Z,6.03
2018-05-05T22:22:24.515Z,6.23
2018-05-05T22:24:52.801Z,6.63
2018-05-05T22:27:20.348Z,6.20
2018-05-05T22:29:47.850Z,6.13
2018-05-05T22:32:15.390Z,5.73
2018-05-05T22:34:42.979Z,6.37
2018-05-05T22:37:10.485Z,6.03
2018-05-05T22:39:40.686Z,6.57
2018-05-05T22:42:08.225Z,6.20
2018-05-05T22:44:35.738Z,6.10
2018-05-05T22:47:04.025Z,6.23
2018-05-05T22:49:35.030Z,6.83
2018-05-05T22:52:02.561Z,6.37
2018-05-05T22:54:30.053Z,5.87
2018-05-05T22:56:57.576Z,7.23
2018-05-05T22:59:38.519Z,5.97
2018-05-05T23:02:06.043Z,6.00
2018-05-05T23:04:33.606Z,6.37
2018-05-05T23:07:01.111Z,6.60
2018-05-05T23:09:28.633Z,6.00
2018-05-05T23:11:56.922Z,6.33
2018-05-05T23:14:25.219Z,5.80
2018-05-05T23:16:52.725Z,6.37
2018-05-05T23:19:23.595Z,6.50
2018-05-05T23:21:51.853Z,5.70
2018-05-05T23:24:19.410Z,6.43
2018-05-05T23:26:46.914Z,6.73
2018-05-05T23:29:14.422Z,6.60
2018-05-05T23:31:41.942Z,7.37
2018-05-05T23:34:09.458Z,7.10
2018-05-05T23:36:36.975Z,6.80
2018-05-05T23:39:04.493Z,7.20
2018-05-05T23:41:32.994Z,6.93
2018-05-05T23:44:00.499Z,6.60
2018-05-05T23:46:28.030Z,7.67
2018-05-05T23:48:57.465Z,7.20
2018-05-05T23:51:25.206Z,6.60
2018-05-05T23:53:52.732Z,7.10
2018-05-05T23:56:21.004Z,6.57
2018-05-05T23:58:49.309Z,6.73
